Airfield :
LOGIN :

Register | Disclaimer

   EN    FR    IT 

 










Legend :    VFR   Marginal VFR   IFR   Intensive IFR   Very Intensive IFR
Visi :
Ceiling :
>= 8 km
>= 3000ft
5 to 8 km
1000 to 3000 ft
1500m to 5 km
500 to 1000 ft
800 to 1500m
200 to 500 ft
< 800m
< 200 ft
Symbols :   Thunderstorms  Fog  Heavy snow  Heavy precipitations  Wind > 20 kt
SIGMETs :     Misc.  Thunderstorms  Icing  Turbulence  Mountain Waves  Volcanic Ashes







- Airport Elevation : 602 ft
- IATA code : NVS
- Download approach charts


LFQG - Nevers

CURRENT METAR :
  • 240830Z AUTO 19003KT 140V250 CAVOK 21/14 Q1021

EXPIRED METARs :
  • 240800Z AUTO 24004KT 190V300 9999 BKN045 19/14 Q1021
  • 240730Z AUTO 23003KT 180V270 9999 OVC046 19/14 Q1021
  • 240700Z AUTO 27003KT 230V300 9999 OVC047 18/13 Q1022
  • 240630Z AUTO 27003KT 220V310 9999 OVC045 17/13 Q1022
  • 240600Z AUTO 27007KT 9999 OVC046 17/13 Q1021

TAF N/A
No reported NOTAMs for that airfield.



MET'MAP, your aeronautical weather chart ! - Copyright ORBIFLY December 2007 - Disclaimer

ORBIFLY MET'MAP TEAM :

Programming & Development : Alexandra Zaïnal
Concept & Development : Baudouin d'Aumeries
Co-Development & Prog : Marc-Olivier Méhu
Technical & hardware support : Manuel Goepfert

Contact : metmap@orbifly.com




SOURCES & CREDITS :

   NOAA